createdAt,value
2018-08-06T00:00:40.819Z,0.00
2018-08-06T00:01:41.059Z,0.00
2018-08-06T00:02:41.302Z,0.00
2018-08-06T00:03:41.545Z,0.00
2018-08-06T00:04:41.786Z,0.00
2018-08-06T00:05:42.030Z,0.00
2018-08-06T00:06:42.270Z,0.00
2018-08-06T00:07:42.513Z,0.00
2018-08-06T00:08:42.756Z,0.00
2018-08-06T00:09:42.995Z,0.00
2018-08-06T00:10:43.241Z,0.00
2018-08-06T00:11:43.481Z,0.00
2018-08-06T00:12:43.722Z,0.00
2018-08-06T00:13:43.969Z,0.00
2018-08-06T00:14:44.208Z,0.00
2018-08-06T00:15:44.451Z,0.00
2018-08-06T00:16:44.692Z,0.00
2018-08-06T00:17:44.937Z,0.00
2018-08-06T00:18:45.177Z,0.00
2018-08-06T00:19:45.420Z,0.00
2018-08-06T00:20:45.661Z,0.00
2018-08-06T00:21:45.905Z,0.00
2018-08-06T00:22:46.146Z,0.00
2018-08-06T00:23:46.388Z,0.00
2018-08-06T00:24:46.632Z,0.00
2018-08-06T00:25:46.874Z,0.00
2018-08-06T00:26:47.116Z,0.00
2018-08-06T00:27:47.358Z,0.00
2018-08-06T00:28:47.601Z,0.00
2018-08-06T00:29:47.842Z,0.00
2018-08-06T00:30:48.084Z,0.00
2018-08-06T00:31:48.326Z,0.00
2018-08-06T00:32:48.567Z,0.00
2018-08-06T00:33:48.808Z,0.00
2018-08-06T00:34:49.053Z,0.00
2018-08-06T00:35:49.294Z,0.00
2018-08-06T00:36:49.536Z,0.00
2018-08-06T00:37:49.778Z,0.00
2018-08-06T00:38:50.020Z,0.00
2018-08-06T00:39:50.262Z,0.00
2018-08-06T00:40:50.506Z,0.00
2018-08-06T00:41:50.747Z,0.00
2018-08-06T00:42:50.989Z,0.00
2018-08-06T00:43:51.231Z,0.00
2018-08-06T00:44:51.474Z,0.00
2018-08-06T00:45:51.715Z,0.00
2018-08-06T00:46:51.960Z,0.00
2018-08-06T00:47:52.201Z,0.00
2018-08-06T00:48:52.442Z,0.00
2018-08-06T00:49:52.684Z,0.00
2018-08-06T00:50:52.926Z,0.00
2018-08-06T00:51:53.169Z,0.00
2018-08-06T00:52:53.414Z,0.00
2018-08-06T00:53:53.653Z,0.00
2018-08-06T00:54:53.895Z,0.00
2018-08-06T00:55:54.137Z,0.00
2018-08-06T00:56:54.379Z,0.00
2018-08-06T00:57:54.623Z,0.00
2018-08-06T00:58:54.864Z,0.00
2018-08-06T00:59:55.106Z,0.00
2018-08-06T01:00:55.349Z,0.00
2018-08-06T01:01:55.591Z,0.00
2018-08-06T01:02:55.834Z,0.00
2018-08-06T01:03:56.076Z,0.00
2018-08-06T01:04:56.318Z,0.00
2018-08-06T01:05:56.562Z,0.00
2018-08-06T01:06:56.803Z,0.00
2018-08-06T01:07:57.045Z,0.00
2018-08-06T01:08:57.288Z,0.00
2018-08-06T01:09:57.530Z,0.00
2018-08-06T01:10:57.773Z,0.00
2018-08-06T01:11:58.016Z,0.00
2018-08-06T01:12:58.259Z,0.00
2018-08-06T01:13:58.501Z,0.00
2018-08-06T01:14:58.744Z,0.00
2018-08-06T01:15:58.985Z,0.00
2018-08-06T01:16:59.227Z,0.00
2018-08-06T01:17:59.468Z,0.00
2018-08-06T01:18:59.710Z,0.00
2018-08-06T01:19:59.952Z,0.00
2018-08-06T01:21:00.195Z,0.00
2018-08-06T01:22:00.438Z,0.00
2018-08-06T01:23:00.680Z,0.00
2018-08-06T01:24:00.922Z,0.00
2018-08-06T01:25:01.169Z,0.00
2018-08-06T01:26:01.407Z,0.00
2018-08-06T01:27:01.650Z,0.00
2018-08-06T01:28:01.892Z,0.00
2018-08-06T01:29:02.135Z,0.00
2018-08-06T01:30:02.378Z,0.00
2018-08-06T01:31:02.624Z,0.00
2018-08-06T01:32:02.863Z,0.00
2018-08-06T01:33:03.105Z,0.00
2018-08-06T01:34:03.347Z,0.00
2018-08-06T01:35:03.590Z,0.00
2018-08-06T01:36:03.830Z,0.00
2018-08-06T01:37:04.071Z,0.00
2018-08-06T01:38:04.314Z,0.00
2018-08-06T01:39:04.556Z,0.00
2018-08-06T01:40:04.796Z,0.00
2018-08-06T01:41:05.038Z,0.00
2018-08-06T01:42:05.279Z,0.00
2018-08-06T01:43:05.521Z,0.00
2018-08-06T01:44:05.764Z,0.00
2018-08-06T01:45:06.006Z,0.00
2018-08-06T01:46:06.246Z,0.00
2018-08-06T01:47:06.492Z,0.00
2018-08-06T01:48:06.734Z,0.00
2018-08-06T01:49:06.974Z,0.00
2018-08-06T01:50:07.215Z,0.00
2018-08-06T01:51:07.456Z,0.00
2018-08-06T01:52:07.699Z,0.00
2018-08-06T01:53:07.939Z,0.00
2018-08-06T01:54:08.180Z,0.00
2018-08-06T01:55:08.420Z,0.00
2018-08-06T01:56:08.661Z,0.00
2018-08-06T01:57:08.903Z,0.00
2018-08-06T01:58:09.144Z,0.00
2018-08-06T01:59:09.386Z,0.00
2018-08-06T02:00:09.627Z,0.00
2018-08-06T02:01:09.869Z,0.00
2018-08-06T02:02:10.110Z,0.00
2018-08-06T02:03:10.352Z,0.00
2018-08-06T02:04:10.594Z,0.00
2018-08-06T02:05:10.839Z,0.00
2018-08-06T02:06:11.076Z,0.00
2018-08-06T02:07:11.318Z,0.00
2018-08-06T02:08:11.559Z,0.00
2018-08-06T02:09:11.801Z,0.00
2018-08-06T02:10:12.042Z,0.00
2018-08-06T02:11:12.285Z,0.00
2018-08-06T02:12:12.527Z,0.00
2018-08-06T02:13:12.768Z,0.00
2018-08-06T02:14:13.010Z,0.00
2018-08-06T02:15:13.254Z,0.00
2018-08-06T02:16:13.493Z,0.00
2018-08-06T02:17:13.734Z,0.00
2018-08-06T02:18:13.975Z,0.00
2018-08-06T02:19:14.216Z,0.00
2018-08-06T02:20:14.467Z,0.00
2018-08-06T02:21:14.703Z,0.00
2018-08-06T02:22:14.940Z,0.00
2018-08-06T02:23:15.182Z,0.00
2018-08-06T02:24:15.424Z,0.00
2018-08-06T02:25:15.665Z,0.00
2018-08-06T02:26:15.907Z,0.00
2018-08-06T02:27:16.154Z,0.00
2018-08-06T02:28:16.390Z,0.00
2018-08-06T02:29:16.630Z,0.00
2018-08-06T02:30:16.871Z,0.00
2018-08-06T02:31:17.113Z,0.00
2018-08-06T02:32:17.353Z,0.00
2018-08-06T02:33:17.595Z,0.00
2018-08-06T02:34:17.840Z,0.00
2018-08-06T02:35:18.077Z,0.00
2018-08-06T02:36:18.316Z,0.00
2018-08-06T02:37:18.560Z,0.00
2018-08-06T02:38:18.798Z,0.00
2018-08-06T02:39:19.040Z,0.00
2018-08-06T02:40:19.280Z,0.00
2018-08-06T02:41:19.520Z,0.00
2018-08-06T02:42:19.763Z,0.00
2018-08-06T02:43:20.002Z,0.00
2018-08-06T02:44:20.244Z,0.00
2018-08-06T02:45:20.486Z,0.00
2018-08-06T02:46:20.724Z,0.00
2018-08-06T02:47:20.966Z,0.00
2018-08-06T02:48:21.206Z,0.00
2018-08-06T02:49:21.446Z,0.00
2018-08-06T02:50:21.687Z,0.00
2018-08-06T02:51:21.931Z,0.00
2018-08-06T02:52:22.171Z,0.00
2018-08-06T02:53:22.413Z,0.00
2018-08-06T02:54:22.653Z,0.00
2018-08-06T02:55:22.893Z,0.00
2018-08-06T02:56:23.136Z,0.00
2018-08-06T02:57:23.375Z,0.00
2018-08-06T02:58:23.619Z,0.00
2018-08-06T02:59:23.856Z,0.00
2018-08-06T03:00:24.097Z,0.00
2018-08-06T03:01:24.337Z,0.00
2018-08-06T03:02:24.580Z,0.00
2018-08-06T03:03:24.819Z,0.00
2018-08-06T03:04:25.061Z,0.00
2018-08-06T03:05:25.300Z,0.00
2018-08-06T03:06:25.542Z,0.00
2018-08-06T03:07:25.788Z,0.00
2018-08-06T03:08:26.024Z,0.00
2018-08-06T03:09:26.265Z,0.00
2018-08-06T03:10:26.506Z,0.00
2018-08-06T03:11:26.747Z,0.00
2018-08-06T03:12:26.986Z,0.00
2018-08-06T03:13:27.232Z,0.00
2018-08-06T03:14:27.470Z,0.00
2018-08-06T03:15:27.711Z,0.00
2018-08-06T03:16:27.955Z,0.00
2018-08-06T03:17:28.197Z,0.00
2018-08-06T03:18:28.449Z,0.00
2018-08-06T03:19:28.689Z,0.00
2018-08-06T03:20:28.930Z,0.00
2018-08-06T03:21:29.170Z,0.00
2018-08-06T03:22:29.412Z,0.00
2018-08-06T03:23:29.654Z,0.00
2018-08-06T03:24:29.892Z,0.00
2018-08-06T03:25:30.135Z,0.00
2018-08-06T03:26:30.383Z,0.00
2018-08-06T03:27:30.624Z,0.00
2018-08-06T03:28:30.866Z,0.00
2018-08-06T03:29:31.128Z,0.00
2018-08-06T03:30:31.350Z,0.00
2018-08-06T03:31:31.589Z,0.00
2018-08-06T03:32:31.831Z,0.00
2018-08-06T03:33:32.076Z,0.00
2018-08-06T03:34:32.316Z,0.00
2018-08-06T03:35:32.557Z,0.00
2018-08-06T03:36:32.798Z,0.00
2018-08-06T03:37:33.037Z,0.00
2018-08-06T03:38:33.277Z,0.00
2018-08-06T03:39:33.517Z,0.00
2018-08-06T03:40:33.759Z,0.00
2018-08-06T03:41:33.998Z,0.00
2018-08-06T03:42:34.238Z,0.00
2018-08-06T03:43:34.521Z,5.63
2018-08-06T03:44:34.723Z,5.63
2018-08-06T03:45:34.964Z,5.63
2018-08-06T03:46:35.206Z,5.63
2018-08-06T03:47:35.446Z,5.63
2018-08-06T03:48:35.687Z,5.63
2018-08-06T03:49:35.927Z,11.25
2018-08-06T03:50:36.167Z,11.25
2018-08-06T03:51:36.407Z,11.25
2018-08-06T03:52:36.650Z,11.25
2018-08-06T03:53:36.887Z,11.25
2018-08-06T03:54:37.127Z,16.88
2018-08-06T03:55:37.368Z,16.88
2018-08-06T03:56:37.609Z,16.88
2018-08-06T03:57:37.850Z,16.88
2018-08-06T03:58:38.090Z,22.50
2018-08-06T03:59:38.331Z,22.50
2018-08-06T04:00:38.576Z,22.50
2018-08-06T04:01:38.814Z,28.13
2018-08-06T04:02:39.055Z,28.13
2018-08-06T04:03:39.295Z,28.13
2018-08-06T04:04:39.536Z,33.75
2018-08-06T04:05:39.776Z,33.75
2018-08-06T04:06:40.018Z,39.38
2018-08-06T04:07:40.257Z,39.38
2018-08-06T04:08:40.497Z,39.38
2018-08-06T04:09:40.737Z,45.00
2018-08-06T04:10:40.977Z,45.00
2018-08-06T04:11:41.218Z,45.00
2018-08-06T04:12:41.459Z,50.63
2018-08-06T04:13:41.700Z,50.63
2018-08-06T04:14:41.944Z,56.25
2018-08-06T04:15:42.181Z,56.25
2018-08-06T04:16:42.420Z,61.88
2018-08-06T04:17:42.667Z,61.88
2018-08-06T04:18:42.904Z,61.88
2018-08-06T04:19:43.200Z,67.50
2018-08-06T04:20:43.385Z,67.50
2018-08-06T04:21:43.627Z,73.13
2018-08-06T04:22:43.867Z,84.38
2018-08-06T04:23:44.107Z,90.00
2018-08-06T04:24:44.348Z,90.00
2018-08-06T04:25:44.591Z,95.63
2018-08-06T04:26:44.830Z,95.63
2018-08-06T04:27:45.070Z,101.25
2018-08-06T04:28:45.311Z,101.25
2018-08-06T04:29:45.552Z,106.88
2018-08-06T04:30:45.793Z,106.88
2018-08-06T04:31:46.032Z,112.50
2018-08-06T04:32:46.292Z,112.50
2018-08-06T04:33:46.515Z,118.13
2018-08-06T04:34:46.760Z,118.13
2018-08-06T04:35:47.003Z,123.75
2018-08-06T04:36:47.240Z,123.75
2018-08-06T04:37:47.482Z,129.38
2018-08-06T04:38:47.722Z,129.38
2018-08-06T04:39:47.962Z,135.00
2018-08-06T04:40:48.202Z,135.00
2018-08-06T04:41:48.443Z,140.63
2018-08-06T04:42:48.682Z,140.63
2018-08-06T04:43:48.924Z,146.25
2018-08-06T04:44:49.165Z,146.25
2018-08-06T04:45:49.404Z,151.88
2018-08-06T04:46:49.645Z,151.88
2018-08-06T04:47:49.888Z,151.88
2018-08-06T04:48:50.128Z,157.50
2018-08-06T04:49:50.370Z,157.50
2018-08-06T04:50:50.609Z,163.13
2018-08-06T04:51:50.849Z,163.13
2018-08-06T04:52:51.091Z,168.75
2018-08-06T04:53:51.333Z,168.75
2018-08-06T04:54:51.573Z,174.38
2018-08-06T04:55:51.819Z,174.38
2018-08-06T04:56:52.057Z,180.00
2018-08-06T04:57:52.298Z,180.00
2018-08-06T04:58:52.538Z,180.00
2018-08-06T04:59:52.779Z,185.63
2018-08-06T05:00:53.022Z,185.63
2018-08-06T05:01:53.261Z,185.63
2018-08-06T05:02:53.506Z,185.63
2018-08-06T05:03:53.745Z,191.25
2018-08-06T05:04:53.986Z,191.25
2018-08-06T05:05:54.228Z,196.88
2018-08-06T05:06:54.477Z,196.88
2018-08-06T05:07:54.717Z,202.50
2018-08-06T05:08:54.955Z,202.50
2018-08-06T05:09:55.198Z,208.13
2018-08-06T05:10:55.439Z,208.13
2018-08-06T05:11:55.681Z,213.75
2018-08-06T05:12:55.923Z,213.75
2018-08-06T05:13:56.165Z,219.38
2018-08-06T05:14:56.407Z,225.00
2018-08-06T05:15:56.649Z,225.00
2018-08-06T05:16:56.892Z,230.63
2018-08-06T05:17:57.134Z,236.25
2018-08-06T05:18:57.377Z,236.25
2018-08-06T05:19:57.619Z,236.25
2018-08-06T05:20:57.853Z,236.25
2018-08-06T05:21:59.691Z,241.88
2018-08-06T05:22:58.519Z,247.50
2018-08-06T05:23:58.839Z,253.13
2018-08-06T05:24:59.085Z,258.75
2018-08-06T05:25:59.324Z,264.38
2018-08-06T05:26:59.647Z,264.38
2018-08-06T05:27:59.910Z,270.00
2018-08-06T05:29:01.601Z,275.63
2018-08-06T05:30:01.893Z,281.25
2018-08-06T05:31:01.444Z,281.25
2018-08-06T05:32:01.006Z,281.25
2018-08-06T05:33:01.398Z,281.25
2018-08-06T05:34:01.641Z,286.88
2018-08-06T05:35:03.007Z,286.88
2018-08-06T05:36:02.101Z,286.88
2018-08-06T05:37:02.344Z,286.88
2018-08-06T05:38:03.277Z,298.13
2018-08-06T05:39:03.506Z,292.50
2018-08-06T05:40:03.692Z,292.50
2018-08-06T05:41:04.088Z,292.50
2018-08-06T05:42:03.840Z,292.50
2018-08-06T05:43:04.237Z,292.50
2018-08-06T05:44:04.479Z,292.50
2018-08-06T05:45:04.722Z,292.50
2018-08-06T05:46:05.049Z,292.50
2018-08-06T05:47:05.350Z,286.88
2018-08-06T05:48:05.590Z,286.88
2018-08-06T05:49:05.873Z,286.88
2018-08-06T05:50:06.160Z,286.88
2018-08-06T05:51:06.462Z,286.88
2018-08-06T05:52:06.718Z,286.88
2018-08-06T05:53:06.963Z,258.75
2018-08-06T05:54:07.230Z,258.75
2018-08-06T05:55:07.469Z,247.50
2018-08-06T05:56:07.709Z,247.50
2018-08-06T05:57:08.066Z,247.50
2018-08-06T05:58:08.309Z,281.25
2018-08-06T05:59:08.551Z,253.13
2018-08-06T06:00:08.796Z,270.00
2018-08-06T06:01:09.041Z,270.00
2018-08-06T06:02:09.286Z,275.63
2018-08-06T06:03:09.529Z,275.63
2018-08-06T06:04:09.769Z,281.25
2018-08-06T06:05:10.014Z,281.25
2018-08-06T06:06:10.259Z,286.88
2018-08-06T06:07:10.503Z,281.25
2018-08-06T06:08:10.752Z,281.25
2018-08-06T06:09:10.996Z,281.25
2018-08-06T06:10:11.236Z,281.25
2018-08-06T06:11:11.479Z,281.25
2018-08-06T06:12:11.723Z,281.25
2018-08-06T06:13:11.967Z,281.25
2018-08-06T06:14:12.211Z,281.25
2018-08-06T06:15:12.456Z,281.25
2018-08-06T06:16:12.697Z,281.25
2018-08-06T06:17:12.945Z,281.25
2018-08-06T06:18:13.194Z,281.25
2018-08-06T06:19:13.449Z,281.25
2018-08-06T06:20:13.682Z,281.25
2018-08-06T06:21:13.924Z,281.25
2018-08-06T06:22:14.172Z,281.25
2018-08-06T06:23:14.416Z,281.25
2018-08-06T06:24:14.661Z,281.25
2018-08-06T06:25:14.948Z,281.25
2018-08-06T06:26:15.149Z,281.25
2018-08-06T06:27:15.393Z,281.25
2018-08-06T06:28:15.639Z,281.25
2018-08-06T06:29:15.885Z,281.25
2018-08-06T06:30:16.125Z,281.25
2018-08-06T06:31:16.373Z,281.25
2018-08-06T06:32:16.618Z,286.88
2018-08-06T06:33:16.863Z,286.88
2018-08-06T06:34:17.107Z,286.88
2018-08-06T06:35:17.351Z,286.88
2018-08-06T06:36:17.594Z,292.50
2018-08-06T06:37:17.845Z,292.50
2018-08-06T06:38:18.091Z,292.50
2018-08-06T06:39:18.327Z,298.13
2018-08-06T06:40:18.573Z,298.13
2018-08-06T06:41:18.819Z,298.13
2018-08-06T06:42:19.063Z,303.75
2018-08-06T06:43:19.307Z,309.38
2018-08-06T06:44:19.570Z,315.00
2018-08-06T06:45:19.800Z,315.00
2018-08-06T06:46:20.046Z,320.63
2018-08-06T06:47:20.289Z,326.25
2018-08-06T06:48:20.539Z,331.88
2018-08-06T06:49:20.780Z,337.50
2018-08-06T06:50:21.029Z,343.13
2018-08-06T06:51:21.279Z,348.75
2018-08-06T06:52:21.525Z,354.38
2018-08-06T06:53:21.768Z,354.38
2018-08-06T06:54:22.062Z,365.63
2018-08-06T06:55:22.257Z,371.25
2018-08-06T06:56:22.504Z,376.88
2018-08-06T06:57:22.749Z,371.25
2018-08-06T06:58:22.999Z,371.25
2018-08-06T06:59:23.243Z,376.88
2018-08-06T07:00:23.492Z,360.00
2018-08-06T07:01:23.740Z,354.38
2018-08-06T07:02:23.974Z,360.00
2018-08-06T07:03:24.220Z,388.13
2018-08-06T07:04:24.464Z,331.88
2018-08-06T07:05:24.711Z,320.63
2018-08-06T07:06:24.993Z,326.25
2018-08-06T07:07:25.203Z,343.13
2018-08-06T07:08:25.448Z,382.50
2018-08-06T07:09:25.693Z,410.63
2018-08-06T07:10:25.939Z,320.63
2018-08-06T07:11:26.185Z,585.00
2018-08-06T07:12:26.433Z,382.50
2018-08-06T07:13:26.675Z,343.13
2018-08-06T07:14:26.919Z,551.25
2018-08-06T07:15:27.166Z,472.50
2018-08-06T07:16:27.413Z,393.75
2018-08-06T07:17:27.659Z,427.50
2018-08-06T07:18:27.903Z,427.50
2018-08-06T07:19:28.148Z,680.63
2018-08-06T07:20:28.394Z,680.63
2018-08-06T07:21:28.638Z,686.25
2018-08-06T07:22:28.885Z,697.50
2018-08-06T07:23:29.132Z,703.13
2018-08-06T07:24:29.377Z,697.50
2018-08-06T07:25:29.626Z,703.13
2018-08-06T07:26:29.873Z,714.38
2018-08-06T07:27:30.120Z,731.25
2018-08-06T07:28:30.374Z,731.25
2018-08-06T07:29:30.616Z,736.88
2018-08-06T07:30:30.863Z,742.50
2018-08-06T07:31:31.111Z,748.13
2018-08-06T07:32:31.357Z,759.38
2018-08-06T07:33:31.703Z,765.00
2018-08-06T07:34:31.905Z,770.63
2018-08-06T07:35:32.149Z,781.88
2018-08-06T07:36:32.400Z,798.75
2018-08-06T07:37:32.648Z,804.38
2018-08-06T07:38:32.898Z,815.63
2018-08-06T07:39:33.150Z,826.88
2018-08-06T07:40:33.411Z,838.13
2018-08-06T07:41:33.654Z,849.38
2018-08-06T07:42:33.903Z,860.63
2018-08-06T07:43:34.152Z,871.88
2018-08-06T07:44:34.401Z,871.88
2018-08-06T07:45:34.653Z,888.75
2018-08-06T07:46:34.905Z,900.00
2018-08-06T07:47:35.155Z,933.75
2018-08-06T07:48:35.406Z,956.25
2018-08-06T07:49:35.718Z,973.13
2018-08-06T07:50:35.894Z,990.00
2018-08-06T07:51:36.140Z,1006.88
2018-08-06T07:52:36.396Z,1029.38
2018-08-06T07:53:36.638Z,1029.38
2018-08-06T07:54:36.889Z,1040.63
2018-08-06T07:55:37.137Z,1051.88
2018-08-06T07:56:37.386Z,1068.75
2018-08-06T07:57:37.638Z,1091.25
2018-08-06T07:58:37.886Z,1108.13
2018-08-06T07:59:38.148Z,1136.25
2018-08-06T08:00:38.386Z,1170.00
2018-08-06T08:01:38.636Z,1203.75
2018-08-06T08:02:38.889Z,1237.50
2018-08-06T08:03:39.137Z,1265.63
2018-08-06T08:04:39.389Z,1282.50
2018-08-06T08:05:39.641Z,1293.75
2018-08-06T08:06:39.891Z,1316.25
2018-08-06T08:07:40.139Z,1327.50
2018-08-06T08:08:40.391Z,1338.75
2018-08-06T08:09:40.642Z,1366.88
2018-08-06T08:10:40.892Z,1389.38
2018-08-06T08:11:41.149Z,1406.25
2018-08-06T08:12:41.393Z,1423.13
2018-08-06T08:13:41.644Z,1434.38
2018-08-06T08:14:41.894Z,1445.63
2018-08-06T08:15:42.147Z,1462.50
2018-08-06T08:16:42.395Z,1456.88
2018-08-06T08:17:42.644Z,1490.63
2018-08-06T08:18:42.899Z,1479.38
2018-08-06T08:19:43.164Z,1350.00
2018-08-06T08:20:43.397Z,1186.88
2018-08-06T08:21:43.650Z,1125.00
2018-08-06T08:22:43.898Z,1096.88
2018-08-06T08:23:44.149Z,1023.75
2018-08-06T08:24:44.402Z,978.75
2018-08-06T08:25:44.654Z,956.25
2018-08-06T08:26:44.901Z,945.00
2018-08-06T08:27:45.154Z,945.00
2018-08-06T08:28:45.408Z,928.13
2018-08-06T08:29:45.655Z,916.88
2018-08-06T08:30:45.910Z,911.25
2018-08-06T08:31:46.161Z,905.63
2018-08-06T08:32:46.416Z,900.00
2018-08-06T08:33:46.674Z,900.00
2018-08-06T08:34:46.925Z,894.38
2018-08-06T08:35:47.178Z,894.38
2018-08-06T08:36:47.429Z,894.38
2018-08-06T08:37:47.691Z,888.75
2018-08-06T08:38:47.938Z,888.75
2018-08-06T08:39:48.187Z,888.75
2018-08-06T08:40:48.440Z,871.88
2018-08-06T08:41:48.694Z,860.63
2018-08-06T08:42:48.955Z,855.00
2018-08-06T08:43:49.196Z,855.00
2018-08-06T08:44:49.447Z,843.75
2018-08-06T08:45:49.689Z,838.13
2018-08-06T08:46:49.957Z,838.13
2018-08-06T08:47:50.211Z,838.13
2018-08-06T08:48:50.463Z,838.13
2018-08-06T08:49:50.718Z,832.50
2018-08-06T08:50:50.971Z,826.88
2018-08-06T08:51:51.222Z,826.88
2018-08-06T08:52:51.473Z,826.88
2018-08-06T08:53:51.726Z,821.25
2018-08-06T08:54:51.975Z,815.63
2018-08-06T08:55:52.226Z,826.88
2018-08-06T08:56:52.479Z,821.25
2018-08-06T08:57:52.727Z,815.63
2018-08-06T08:58:53.156Z,810.00
2018-08-06T08:59:53.241Z,810.00
2018-08-06T09:00:53.488Z,804.38
2018-08-06T09:01:53.743Z,804.38
2018-08-06T09:02:53.994Z,810.00
2018-08-06T09:03:54.247Z,810.00
2018-08-06T09:04:54.506Z,810.00
2018-08-06T09:05:54.750Z,821.25
2018-08-06T09:06:55.003Z,815.63
2018-08-06T09:07:55.255Z,815.63
2018-08-06T09:08:55.510Z,815.63
2018-08-06T09:09:55.760Z,815.63
2018-08-06T09:10:56.014Z,815.63
2018-08-06T09:11:56.267Z,815.63
2018-08-06T09:12:56.519Z,821.25
2018-08-06T09:13:56.790Z,821.25
2018-08-06T09:14:57.026Z,826.88
2018-08-06T09:15:57.280Z,821.25
2018-08-06T09:16:57.532Z,821.25
2018-08-06T09:17:57.793Z,821.25
2018-08-06T09:18:58.046Z,821.25
2018-08-06T09:19:58.299Z,821.25
2018-08-06T09:20:58.555Z,821.25
2018-08-06T09:21:58.809Z,821.25
2018-08-06T09:22:59.065Z,826.88
2018-08-06T09:23:59.318Z,821.25
2018-08-06T09:24:59.572Z,821.25
2018-08-06T09:25:59.827Z,821.25
2018-08-06T09:27:00.078Z,826.88
2018-08-06T09:28:00.323Z,826.88
2018-08-06T09:29:00.579Z,826.88
2018-08-06T09:30:00.833Z,826.88
2018-08-06T09:31:01.085Z,838.13
2018-08-06T09:32:01.340Z,832.50
2018-08-06T09:33:01.593Z,832.50
2018-08-06T09:34:01.887Z,832.50
2018-08-06T09:35:02.112Z,832.50
2018-08-06T09:36:02.364Z,832.50
2018-08-06T09:37:02.617Z,832.50
2018-08-06T09:38:02.875Z,832.50
2018-08-06T09:39:03.133Z,832.50
2018-08-06T09:40:03.383Z,832.50
2018-08-06T09:41:03.637Z,838.13
2018-08-06T09:42:03.892Z,838.13
2018-08-06T09:43:04.146Z,838.13
2018-08-06T09:44:04.401Z,838.13
2018-08-06T09:45:04.655Z,838.13
2018-08-06T09:46:04.908Z,838.13
2018-08-06T09:47:05.165Z,838.13
2018-08-06T09:48:05.419Z,838.13
2018-08-06T09:49:05.677Z,838.13
2018-08-06T09:50:05.931Z,838.13
2018-08-06T09:51:06.185Z,838.13
2018-08-06T09:52:06.439Z,843.75
2018-08-06T09:53:06.696Z,843.75
2018-08-06T09:54:06.952Z,843.75
2018-08-06T09:55:07.207Z,849.38
2018-08-06T09:56:07.460Z,849.38
2018-08-06T09:57:07.728Z,849.38
2018-08-06T09:58:07.970Z,855.00
2018-08-06T09:59:08.226Z,849.38
2018-08-06T10:00:08.482Z,855.00
2018-08-06T10:01:08.730Z,855.00
2018-08-06T10:02:08.994Z,860.63
2018-08-06T10:03:09.253Z,866.25
2018-08-06T10:04:09.509Z,866.25
2018-08-06T10:05:09.764Z,877.50
2018-08-06T10:06:10.109Z,883.13
2018-08-06T10:07:10.267Z,888.75
2018-08-06T10:08:10.544Z,894.38
2018-08-06T10:09:10.799Z,905.63
2018-08-06T10:10:11.056Z,916.88
2018-08-06T10:11:11.312Z,928.13
2018-08-06T10:12:11.569Z,945.00
2018-08-06T10:13:11.824Z,956.25
2018-08-06T10:14:12.081Z,990.00
2018-08-06T10:15:12.334Z,1063.13
2018-08-06T10:16:12.592Z,1575.00
2018-08-06T10:17:12.848Z,2407.50
2018-08-06T10:18:13.103Z,2593.13
2018-08-06T10:19:13.457Z,2649.38
2018-08-06T10:20:13.617Z,2694.38
2018-08-06T10:21:13.875Z,2722.50
2018-08-06T10:22:14.129Z,2756.25
2018-08-06T10:23:14.385Z,2784.38
2018-08-06T10:24:14.638Z,2818.13
2018-08-06T10:25:14.896Z,2846.25
2018-08-06T10:26:15.150Z,2880.00
2018-08-06T10:27:15.407Z,2913.75
2018-08-06T10:28:15.666Z,2925.00
2018-08-06T10:29:15.920Z,2936.25
2018-08-06T10:30:16.336Z,2964.38
2018-08-06T10:31:16.438Z,2964.38
2018-08-06T10:32:16.697Z,2986.88
2018-08-06T10:33:16.952Z,2992.50
2018-08-06T10:34:17.208Z,3020.63
2018-08-06T10:35:17.466Z,3043.13
2018-08-06T10:36:17.724Z,3054.38
2018-08-06T10:37:17.981Z,3060.00
2018-08-06T10:38:18.233Z,3071.25
2018-08-06T10:39:18.488Z,3071.25
2018-08-06T10:40:18.754Z,3065.63
2018-08-06T10:41:18.999Z,3076.88
2018-08-06T10:42:19.254Z,3076.88
2018-08-06T10:43:19.535Z,3088.13
2018-08-06T10:48:46.113Z,3223.13
2018-08-06T10:49:46.300Z,3251.25
2018-08-06T10:50:46.555Z,3234.38
2018-08-06T10:51:46.884Z,3251.25
2018-08-06T10:52:47.145Z,3240.00
2018-08-06T10:53:47.455Z,3251.25
2018-08-06T10:54:47.660Z,3245.63
2018-08-06T10:55:47.955Z,3273.75
2018-08-06T10:56:48.212Z,3273.75
2018-08-06T10:57:48.468Z,3285.00
2018-08-06T10:58:48.726Z,3290.63
2018-08-06T10:59:48.986Z,3307.50
2018-08-06T11:00:49.239Z,3335.63
2018-08-06T11:01:49.496Z,3335.63
2018-08-06T11:02:49.752Z,3352.50
2018-08-06T11:03:50.008Z,3369.38
2018-08-06T11:04:50.262Z,3386.25
2018-08-06T11:05:50.518Z,3403.13
2018-08-06T11:06:50.773Z,3425.63
2018-08-06T11:07:51.035Z,3414.38
2018-08-06T11:08:51.314Z,3420.00
2018-08-06T11:09:51.550Z,3453.75
2018-08-06T11:10:51.806Z,3493.13
2018-08-06T11:11:52.062Z,3515.63
2018-08-06T11:12:52.320Z,3510.00
2018-08-06T11:13:52.577Z,3481.88
2018-08-06T11:14:52.837Z,3504.38
2018-08-06T11:15:53.095Z,3543.75
2018-08-06T11:16:53.351Z,3538.13
2018-08-06T11:17:53.611Z,3538.13
2018-08-06T11:18:53.864Z,3560.63
2018-08-06T11:19:54.126Z,3571.88
2018-08-06T11:20:54.376Z,3594.38
2018-08-06T11:21:54.634Z,3628.13
2018-08-06T11:22:54.891Z,3611.25
2018-08-06T11:23:55.144Z,3611.25
2018-08-06T11:24:55.400Z,3611.25
2018-08-06T11:25:55.656Z,3622.50
2018-08-06T11:26:55.912Z,3650.63
2018-08-06T11:27:56.167Z,3740.63
2018-08-06T11:28:56.425Z,3712.50
2018-08-06T11:29:56.685Z,3768.75
2018-08-06T11:30:56.945Z,3763.13
2018-08-06T11:31:57.201Z,3723.75
2018-08-06T11:32:57.462Z,3690.00
2018-08-06T11:33:57.717Z,3605.63
2018-08-06T11:34:57.974Z,3605.63
2018-08-06T11:35:59.026Z,3622.50
2018-08-06T11:36:58.642Z,3628.13
2018-08-06T11:37:58.897Z,3605.63
2018-08-06T11:38:59.158Z,3628.13
2018-08-06T11:39:59.409Z,3639.38
2018-08-06T11:40:59.667Z,3690.00
2018-08-06T11:41:59.923Z,3701.25
2018-08-06T11:43:00.181Z,3650.63
2018-08-06T11:44:00.440Z,3667.50
2018-08-06T11:45:00.698Z,3645.00
2018-08-06T11:46:00.957Z,3667.50
2018-08-06T11:47:01.216Z,3645.00
2018-08-06T11:48:01.475Z,3600.00
2018-08-06T11:49:01.734Z,3566.25
2018-08-06T11:50:01.994Z,3560.63
2018-08-06T11:51:02.252Z,3560.63
2018-08-06T11:52:02.514Z,3571.88
2018-08-06T11:53:02.773Z,3571.88
2018-08-06T11:54:03.030Z,3555.00
2018-08-06T11:55:03.288Z,3566.25
2018-08-06T11:56:03.547Z,3583.13
2018-08-06T11:57:03.805Z,3611.25
2018-08-06T11:58:04.061Z,3622.50
2018-08-06T11:59:04.318Z,3588.75
2018-08-06T12:00:04.572Z,3605.63
2018-08-06T12:01:04.828Z,3611.25
2018-08-06T12:02:05.086Z,3639.38
2018-08-06T12:03:05.347Z,3639.38
2018-08-06T12:04:05.600Z,3622.50
2018-08-06T12:05:05.854Z,3667.50
2018-08-06T12:06:06.114Z,3588.75
2018-08-06T12:07:06.372Z,3560.63
2018-08-06T12:08:06.628Z,3532.50
2018-08-06T12:09:06.886Z,3543.75
2018-08-06T12:10:07.142Z,3555.00
2018-08-06T12:11:07.399Z,3571.88
2018-08-06T12:12:07.657Z,3577.50
2018-08-06T12:13:07.911Z,3628.13
2018-08-06T12:14:08.167Z,3656.25
2018-08-06T12:15:08.451Z,3622.50
2018-08-06T12:16:08.684Z,3571.88
2018-08-06T12:17:08.942Z,3510.00
2018-08-06T12:18:09.205Z,3487.50
2018-08-06T12:19:09.456Z,3481.88
2018-08-06T12:20:09.713Z,3481.88
2018-08-06T12:21:10.005Z,3476.25
2018-08-06T12:22:10.225Z,3498.75
2018-08-06T12:23:10.481Z,3555.00
2018-08-06T12:24:10.739Z,3616.88
2018-08-06T12:25:11.000Z,3639.38
2018-08-06T12:26:11.359Z,3616.88
2018-08-06T12:27:11.568Z,3583.13
2018-08-06T12:28:11.771Z,3560.63
2018-08-06T12:29:12.029Z,3583.13
2018-08-06T12:30:12.286Z,3611.25
2018-08-06T12:31:12.546Z,3622.50
2018-08-06T12:32:12.801Z,3611.25
2018-08-06T12:33:13.062Z,3521.25
2018-08-06T12:34:13.318Z,3465.00
2018-08-06T12:35:13.573Z,3526.88
2018-08-06T12:36:13.832Z,2615.63
2018-08-06T12:37:14.092Z,3510.00
2018-08-06T12:38:14.414Z,3470.63
2018-08-06T12:39:14.605Z,3493.13
2018-08-06T12:40:14.862Z,3521.25
2018-08-06T12:41:15.119Z,3543.75
2018-08-06T12:42:15.380Z,3521.25
2018-08-06T12:43:15.634Z,3476.25
2018-08-06T12:44:15.893Z,3453.75
2018-08-06T12:45:16.149Z,3465.00
2018-08-06T12:46:16.457Z,3476.25